sensor_id;sensor_type;location;lat;lon;timestamp;temperature;humidity
8422;DHT22;4248;48.196;10.924;2023-10-09T00:01:45;13.00;32.30
8422;DHT22;4248;48.196;10.924;2023-10-09T00:04:11;12.90;32.20
8422;DHT22;4248;48.196;10.924;2023-10-09T00:06:39;12.90;32.20
8422;DHT22;4248;48.196;10.924;2023-10-09T00:09:07;13.00;32.40
8422;DHT22;4248;48.196;10.924;2023-10-09T00:11:44;13.00;32.60
8422;DHT22;4248;48.196;10.924;2023-10-09T00:14:13;13.00;32.80
8422;DHT22;4248;48.196;10.924;2023-10-09T00:16:41;13.00;32.70
8422;DHT22;4248;48.196;10.924;2023-10-09T00:19:14;13.10;32.60
8422;DHT22;4248;48.196;10.924;2023-10-09T00:24:11;13.10;32.30
8422;DHT22;4248;48.196;10.924;2023-10-09T00:26:47;13.10;32.20
8422;DHT22;4248;48.196;10.924;2023-10-09T00:29:14;13.10;32.10
8422;DHT22;4248;48.196;10.924;2023-10-09T00:32:02;13.20;32.10
8422;DHT22;4248;48.196;10.924;2023-10-09T00:34:50;13.20;31.70
8422;DHT22;4248;48.196;10.924;2023-10-09T00:37:17;13.30;31.60
8422;DHT22;4248;48.196;10.924;2023-10-09T00:39:45;13.40;31.60
8422;DHT22;4248;48.196;10.924;2023-10-09T00:42:13;13.30;31.60
8422;DHT22;4248;48.196;10.924;2023-10-09T00:44:40;13.40;31.60
8422;DHT22;4248;48.196;10.924;2023-10-09T00:47:14;13.40;31.50
8422;DHT22;4248;48.196;10.924;2023-10-09T00:49:58;13.50;31.80
8422;DHT22;4248;48.196;10.924;2023-10-09T00:52:30;13.50;31.90
8422;DHT22;4248;48.196;10.924;2023-10-09T00:55:00;13.50;32.20
8422;DHT22;4248;48.196;10.924;2023-10-09T00:57:42;13.60;32.30
8422;DHT22;4248;48.196;10.924;2023-10-09T01:00:13;13.60;32.60
8422;DHT22;4248;48.196;10.924;2023-10-09T01:02:59;13.60;32.60
8422;DHT22;4248;48.196;10.924;2023-10-09T01:05:36;13.70;32.70
8422;DHT22;4248;48.196;10.924;2023-10-09T01:08:02;13.80;32.80
8422;DHT22;4248;48.196;10.924;2023-10-09T01:10:45;13.70;32.70
8422;DHT22;4248;48.196;10.924;2023-10-09T01:13:16;13.80;32.90
8422;DHT22;4248;48.196;10.924;2023-10-09T01:15:43;13.80;32.80
8422;DHT22;4248;48.196;10.924;2023-10-09T01:18:10;13.90;32.90
8422;DHT22;4248;48.196;10.924;2023-10-09T01:20:36;13.90;33.00
8422;DHT22;4248;48.196;10.924;2023-10-09T01:23:11;13.80;33.00
8422;DHT22;4248;48.196;10.924;2023-10-09T01:25:37;13.90;33.20
8422;DHT22;4248;48.196;10.924;2023-10-09T01:28:10;13.90;33.10
8422;DHT22;4248;48.196;10.924;2023-10-09T01:30:42;13.90;33.00
8422;DHT22;4248;48.196;10.924;2023-10-09T01:33:08;13.80;33.10
8422;DHT22;4248;48.196;10.924;2023-10-09T01:35:47;13.80;33.20
8422;DHT22;4248;48.196;10.924;2023-10-09T01:38:15;13.80;33.10
8422;DHT22;4248;48.196;10.924;2023-10-09T01:40:41;13.80;34.40
8422;DHT22;4248;48.196;10.924;2023-10-09T01:43:08;13.80;33.10
8422;DHT22;4248;48.196;10.924;2023-10-09T01:45:36;13.80;33.00
8422;DHT22;4248;48.196;10.924;2023-10-09T01:48:09;13.80;32.90
8422;DHT22;4248;48.196;10.924;2023-10-09T01:50:36;13.80;32.90
8422;DHT22;4248;48.196;10.924;2023-10-09T01:53:02;13.90;33.00
8422;DHT22;4248;48.196;10.924;2023-10-09T01:55:30;13.90;32.90
8422;DHT22;4248;48.196;10.924;2023-10-09T01:58:06;14.00;33.00
8422;DHT22;4248;48.196;10.924;2023-10-09T02:00:52;13.90;33.00
8422;DHT22;4248;48.196;10.924;2023-10-09T02:03:21;13.80;33.20
8422;DHT22;4248;48.196;10.924;2023-10-09T02:05:52;13.80;33.40
8422;DHT22;4248;48.196;10.924;2023-10-09T02:08:29;13.80;33.70
8422;DHT22;4248;48.196;10.924;2023-10-09T02:11:01;13.80;33.80
8422;DHT22;4248;48.196;10.924;2023-10-09T02:13:29;13.80;33.90
8422;DHT22;4248;48.196;10.924;2023-10-09T02:15:58;14.00;34.00
8422;DHT22;4248;48.196;10.924;2023-10-09T02:18:38;13.90;33.90
8422;DHT22;4248;48.196;10.924;2023-10-09T02:21:18;13.90;33.90
8422;DHT22;4248;48.196;10.924;2023-10-09T02:23:54;13.90;33.90
8422;DHT22;4248;48.196;10.924;2023-10-09T02:26:23;13.90;33.80
8422;DHT22;4248;48.196;10.924;2023-10-09T02:29:00;13.90;33.90
8422;DHT22;4248;48.196;10.924;2023-10-09T02:31:31;13.90;33.90
8422;DHT22;4248;48.196;10.924;2023-10-09T02:34:09;13.90;33.80
8422;DHT22;4248;48.196;10.924;2023-10-09T02:36:36;13.90;33.80
8422;DHT22;4248;48.196;10.924;2023-10-09T02:39:22;13.90;33.70
8422;DHT22;4248;48.196;10.924;2023-10-09T02:41:56;13.90;33.60
8422;DHT22;4248;48.196;10.924;2023-10-09T02:44:42;13.90;33.50
8422;DHT22;4248;48.196;10.924;2023-10-09T02:47:20;14.00;33.40
8422;DHT22;4248;48.196;10.924;2023-10-09T02:49:49;14.10;33.20
8422;DHT22;4248;48.196;10.924;2023-10-09T02:52:16;14.10;33.10
8422;DHT22;4248;48.196;10.924;2023-10-09T02:54:51;14.10;33.00
8422;DHT22;4248;48.196;10.924;2023-10-09T02:57:28;14.10;32.90
8422;DHT22;4248;48.196;10.924;2023-10-09T03:00:05;14.10;32.80
8422;DHT22;4248;48.196;10.924;2023-10-09T03:02:54;14.10;32.80
8422;DHT22;4248;48.196;10.924;2023-10-09T03:05:20;14.10;32.70
8422;DHT22;4248;48.196;10.924;2023-10-09T03:07:46;14.20;32.80
8422;DHT22;4248;48.196;10.924;2023-10-09T03:10:11;14.10;32.70
8422;DHT22;4248;48.196;10.924;2023-10-09T03:12:37;14.20;32.90
8422;DHT22;4248;48.196;10.924;2023-10-09T03:15:05;14.10;32.70
8422;DHT22;4248;48.196;10.924;2023-10-09T03:17:34;14.20;32.50
8422;DHT22;4248;48.196;10.924;2023-10-09T03:20:03;14.20;32.30
8422;DHT22;4248;48.196;10.924;2023-10-09T03:22:34;14.30;32.20
8422;DHT22;4248;48.196;10.924;2023-10-09T03:25:00;14.20;32.00
8422;DHT22;4248;48.196;10.924;2023-10-09T03:27:26;14.30;32.00
8422;DHT22;4248;48.196;10.924;2023-10-09T03:29:51;14.30;31.80
8422;DHT22;4248;48.196;10.924;2023-10-09T03:32:19;14.30;31.60
8422;DHT22;4248;48.196;10.924;2023-10-09T03:34:45;14.30;31.50
8422;DHT22;4248;48.196;10.924;2023-10-09T03:37:11;14.30;31.40
8422;DHT22;4248;48.196;10.924;2023-10-09T03:39:47;14.20;31.30
8422;DHT22;4248;48.196;10.924;2023-10-09T03:42:14;14.20;31.40
8422;DHT22;4248;48.196;10.924;2023-10-09T03:44:46;14.10;31.40
8422;DHT22;4248;48.196;10.924;2023-10-09T03:47:17;14.00;31.60
8422;DHT22;4248;48.196;10.924;2023-10-09T03:49:51;14.00;31.70
8422;DHT22;4248;48.196;10.924;2023-10-09T03:52:17;14.00;31.80
8422;DHT22;4248;48.196;10.924;2023-10-09T03:54:44;13.90;31.50
8422;DHT22;4248;48.196;10.924;2023-10-09T03:57:13;13.90;31.60
8422;DHT22;4248;48.196;10.924;2023-10-09T03:59:48;13.90;31.50
8422;DHT22;4248;48.196;10.924;2023-10-09T04:02:14;14.00;31.20
8422;DHT22;4248;48.196;10.924;2023-10-09T04:04:41;14.10;31.10
8422;DHT22;4248;48.196;10.924;2023-10-09T04:07:15;14.10;30.80
8422;DHT22;4248;48.196;10.924;2023-10-09T04:09:43;14.20;30.50
8422;DHT22;4248;48.196;10.924;2023-10-09T04:12:27;14.30;30.30
8422;DHT22;4248;48.196;10.924;2023-10-09T04:14:56;14.30;30.00
8422;DHT22;4248;48.196;10.924;2023-10-09T04:17:28;14.30;29.70
8422;DHT22;4248;48.196;10.924;2023-10-09T04:19:54;14.40;29.30
8422;DHT22;4248;48.196;10.924;2023-10-09T04:22:39;14.40;29.20
8422;DHT22;4248;48.196;10.924;2023-10-09T04:25:15;14.30;29.10
8422;DHT22;4248;48.196;10.924;2023-10-09T04:27:53;14.30;29.10
8422;DHT22;4248;48.196;10.924;2023-10-09T04:30:22;14.20;29.10
8422;DHT22;4248;48.196;10.924;2023-10-09T04:32:49;14.20;29.10
8422;DHT22;4248;48.196;10.924;2023-10-09T04:35:15;14.20;29.10
8422;DHT22;4248;48.196;10.924;2023-10-09T04:37:50;14.20;29.10
8422;DHT22;4248;48.196;10.924;2023-10-09T04:40:28;14.20;29.10
8422;DHT22;4248;48.196;10.924;2023-10-09T04:43:13;14.10;29.20
8422;DHT22;4248;48.196;10.924;2023-10-09T04:45:46;14.10;29.50
8422;DHT22;4248;48.196;10.924;2023-10-09T04:48:30;14.10;29.70
8422;DHT22;4248;48.196;10.924;2023-10-09T04:51:00;14.00;29.60
8422;DHT22;4248;48.196;10.924;2023-10-09T04:53:57;13.80;30.80
8422;DHT22;4248;48.196;10.924;2023-10-09T04:56:43;13.70;30.10
8422;DHT22;4248;48.196;10.924;2023-10-09T04:59:18;13.50;30.60
8422;DHT22;4248;48.196;10.924;2023-10-09T05:01:44;13.40;31.10
8422;DHT22;4248;48.196;10.924;2023-10-09T05:04:22;13.30;31.30
8422;DHT22;4248;48.196;10.924;2023-10-09T05:07:00;13.30;31.50
8422;DHT22;4248;48.196;10.924;2023-10-09T05:09:33;13.20;31.60
8422;DHT22;4248;48.196;10.924;2023-10-09T05:12:18;13.20;31.60
8422;DHT22;4248;48.196;10.924;2023-10-09T05:14:51;13.20;31.20
8422;DHT22;4248;48.196;10.924;2023-10-09T05:17:34;13.20;31.20
8422;DHT22;4248;48.196;10.924;2023-10-09T05:20:02;13.20;31.20
8422;DHT22;4248;48.196;10.924;2023-10-09T05:22:46;13.20;31.30
8422;DHT22;4248;48.196;10.924;2023-10-09T05:25:38;13.10;31.10
8422;DHT22;4248;48.196;10.924;2023-10-09T05:28:19;13.10;31.10
8422;DHT22;4248;48.196;10.924;2023-10-09T05:30:56;13.10;31.10
8422;DHT22;4248;48.196;10.924;2023-10-09T05:33:37;13.20;31.10
8422;DHT22;4248;48.196;10.924;2023-10-09T05:36:05;13.20;30.90
8422;DHT22;4248;48.196;10.924;2023-10-09T05:38:42;13.30;30.90
8422;DHT22;4248;48.196;10.924;2023-10-09T05:41:25;13.40;30.70
8422;DHT22;4248;48.196;10.924;2023-10-09T05:44:11;13.40;30.50
8422;DHT22;4248;48.196;10.924;2023-10-09T05:46:55;13.50;30.30
8422;DHT22;4248;48.196;10.924;2023-10-09T05:49:39;13.60;30.00
8422;DHT22;4248;48.196;10.924;2023-10-09T05:52:23;13.60;29.90
8422;DHT22;4248;48.196;10.924;2023-10-09T05:54:58;13.60;29.90
8422;DHT22;4248;48.196;10.924;2023-10-09T05:57:43;13.70;29.90
8422;DHT22;4248;48.196;10.924;2023-10-09T06:00:24;13.80;29.70
8422;DHT22;4248;48.196;10.924;2023-10-09T06:03:08;13.90;29.40
8422;DHT22;4248;48.196;10.924;2023-10-09T06:05:50;14.00;28.90
8422;DHT22;4248;48.196;10.924;2023-10-09T06:08:19;14.20;29.10
8422;DHT22;4248;48.196;10.924;2023-10-09T06:11:03;14.30;29.20
8422;DHT22;4248;48.196;10.924;2023-10-09T06:13:57;14.40;29.10
8422;DHT22;4248;48.196;10.924;2023-10-09T06:16:38;14.60;28.70
8422;DHT22;4248;48.196;10.924;2023-10-09T06:19:22;14.60;28.30
8422;DHT22;4248;48.196;10.924;2023-10-09T06:21:48;14.70;28.30
8422;DHT22;4248;48.196;10.924;2023-10-09T06:24:29;14.90;28.20
8422;DHT22;4248;48.196;10.924;2023-10-09T06:26:59;15.00;27.90
8422;DHT22;4248;48.196;10.924;2023-10-09T06:29:25;15.00;27.70
8422;DHT22;4248;48.196;10.924;2023-10-09T06:32:12;15.10;27.50
8422;DHT22;4248;48.196;10.924;2023-10-09T06:35:01;15.30;27.30
8422;DHT22;4248;48.196;10.924;2023-10-09T06:37:43;15.40;27.00
8422;DHT22;4248;48.196;10.924;2023-10-09T06:40:34;15.60;26.70
8422;DHT22;4248;48.196;10.924;2023-10-09T06:43:19;15.70;26.50
8422;DHT22;4248;48.196;10.924;2023-10-09T06:45:48;15.90;26.30
8422;DHT22;4248;48.196;10.924;2023-10-09T06:48:21;16.00;26.20
8422;DHT22;4248;48.196;10.924;2023-10-09T06:51:06;16.10;26.00
8422;DHT22;4248;48.196;10.924;2023-10-09T06:53:50;16.40;25.90
8422;DHT22;4248;48.196;10.924;2023-10-09T06:56:28;16.60;25.40
8422;DHT22;4248;48.196;10.924;2023-10-09T07:01:21;16.80;24.70
8422;DHT22;4248;48.196;10.924;2023-10-09T07:03:53;16.90;24.50
8422;DHT22;4248;48.196;10.924;2023-10-09T07:06:20;17.00;24.20
8422;DHT22;4248;48.196;10.924;2023-10-09T07:08:55;17.10;24.90
8422;DHT22;4248;48.196;10.924;2023-10-09T07:11:33;17.30;23.70
8422;DHT22;4248;48.196;10.924;2023-10-09T07:14:14;17.40;23.40
8422;DHT22;4248;48.196;10.924;2023-10-09T07:17:03;17.60;23.10
8422;DHT22;4248;48.196;10.924;2023-10-09T07:19:41;17.80;22.60
8422;DHT22;4248;48.196;10.924;2023-10-09T07:22:07;18.00;22.50
8422;DHT22;4248;48.196;10.924;2023-10-09T07:24:49;18.20;22.30
8422;DHT22;4248;48.196;10.924;2023-10-09T07:27:25;18.50;21.60
8422;DHT22;4248;48.196;10.924;2023-10-09T07:30:18;18.70;21.50
8422;DHT22;4248;48.196;10.924;2023-10-09T07:35:45;19.40;20.00
8422;DHT22;4248;48.196;10.924;2023-10-09T07:38:25;19.70;19.30
8422;DHT22;4248;48.196;10.924;2023-10-09T07:40:55;20.00;18.30
8422;DHT22;4248;48.196;10.924;2023-10-09T07:43:26;20.20;17.60
8422;DHT22;4248;48.196;10.924;2023-10-09T07:45:55;20.40;17.10
8422;DHT22;4248;48.196;10.924;2023-10-09T07:48:23;20.60;15.60
8422;DHT22;4248;48.196;10.924;2023-10-09T07:50:52;20.60;15.70
8422;DHT22;4248;48.196;10.924;2023-10-09T07:53:24;20.60;15.40
8422;DHT22;4248;48.196;10.924;2023-10-09T07:55:54;20.60;14.30
8422;DHT22;4248;48.196;10.924;2023-10-09T07:58:24;20.60;14.50
8422;DHT22;4248;48.196;10.924;2023-10-09T08:00:57;20.60;13.90
8422;DHT22;4248;48.196;10.924;2023-10-09T08:03:34;20.60;13.90
8422;DHT22;4248;48.196;10.924;2023-10-09T08:06:01;20.60;13.80
8422;DHT22;4248;48.196;10.924;2023-10-09T08:08:52;20.40;13.30
8422;DHT22;4248;48.196;10.924;2023-10-09T08:11:36;20.50;13.30
8422;DHT22;4248;48.196;10.924;2023-10-09T08:14:11;20.40;13.20
8422;DHT22;4248;48.196;10.924;2023-10-09T08:16:46;20.40;12.80
8422;DHT22;4248;48.196;10.924;2023-10-09T08:19:11;20.40;12.80
8422;DHT22;4248;48.196;10.924;2023-10-09T08:21:55;20.40;12.60
8422;DHT22;4248;48.196;10.924;2023-10-09T08:24:39;20.40;12.60
8422;DHT22;4248;48.196;10.924;2023-10-09T08:27:09;20.40;12.60
8422;DHT22;4248;48.196;10.924;2023-10-09T08:30:13;20.40;12.80
8422;DHT22;4248;48.196;10.924;2023-10-09T08:32:51;20.40;12.80
8422;DHT22;4248;48.196;10.924;2023-10-09T08:35:37;20.30;12.30
8422;DHT22;4248;48.196;10.924;2023-10-09T08:38:15;20.30;12.10
8422;DHT22;4248;48.196;10.924;2023-10-09T08:40:49;20.30;12.40
8422;DHT22;4248;48.196;10.924;2023-10-09T08:43:16;20.40;12.30
8422;DHT22;4248;48.196;10.924;2023-10-09T08:46:03;20.50;11.90
8422;DHT22;4248;48.196;10.924;2023-10-09T08:48:30;20.60;11.80
8422;DHT22;4248;48.196;10.924;2023-10-09T08:50:56;20.80;11.90
8422;DHT22;4248;48.196;10.924;2023-10-09T08:53:23;20.90;11.90
8422;DHT22;4248;48.196;10.924;2023-10-09T08:55:49;21.00;12.00
8422;DHT22;4248;48.196;10.924;2023-10-09T08:58:17;21.10;11.70
8422;DHT22;4248;48.196;10.924;2023-10-09T09:01:02;21.10;11.50
8422;DHT22;4248;48.196;10.924;2023-10-09T09:03:38;21.10;11.30
8422;DHT22;4248;48.196;10.924;2023-10-09T09:06:04;21.20;11.10
8422;DHT22;4248;48.196;10.924;2023-10-09T09:08:32;21.30;11.20
8422;DHT22;4248;48.196;10.924;2023-10-09T09:16:25;21.50;10.50
8422;DHT22;4248;48.196;10.924;2023-10-09T09:18:59;21.80;10.30
8422;DHT22;4248;48.196;10.924;2023-10-09T09:21:31;21.80;9.90
8422;DHT22;4248;48.196;10.924;2023-10-09T09:24:03;21.90;9.70
8422;DHT22;4248;48.196;10.924;2023-10-09T09:26:40;21.90;9.50
8422;DHT22;4248;48.196;10.924;2023-10-09T09:29:13;22.00;9.30
8422;DHT22;4248;48.196;10.924;2023-10-09T09:31:55;22.00;9.10
8422;DHT22;4248;48.196;10.924;2023-10-09T09:34:23;22.20;8.80
8422;DHT22;4248;48.196;10.924;2023-10-09T09:36:58;22.30;8.50
8422;DHT22;4248;48.196;10.924;2023-10-09T09:39:26;22.30;8.10
8422;DHT22;4248;48.196;10.924;2023-10-09T09:42:00;22.40;7.90
8422;DHT22;4248;48.196;10.924;2023-10-09T09:44:39;22.50;7.50
8422;DHT22;4248;48.196;10.924;2023-10-09T09:47:14;22.50;7.30
8422;DHT22;4248;48.196;10.924;2023-10-09T09:49:52;22.60;7.40
8422;DHT22;4248;48.196;10.924;2023-10-09T09:52:19;22.50;8.00
8422;DHT22;4248;48.196;10.924;2023-10-09T09:54:45;22.50;7.10
8422;DHT22;4248;48.196;10.924;2023-10-09T09:57:15;22.50;7.00
8422;DHT22;4248;48.196;10.924;2023-10-09T09:59:51;22.60;7.00
8422;DHT22;4248;48.196;10.924;2023-10-09T10:02:30;22.70;6.90
8422;DHT22;4248;48.196;10.924;2023-10-09T10:05:02;22.60;6.20
8422;DHT22;4248;48.196;10.924;2023-10-09T10:07:32;22.60;6.40
8422;DHT22;4248;48.196;10.924;2023-10-09T10:10:39;22.70;6.30
8422;DHT22;4248;48.196;10.924;2023-10-09T10:13:13;22.90;6.00
8422;DHT22;4248;48.196;10.924;2023-10-09T10:18:30;22.90;5.80
8422;DHT22;4248;48.196;10.924;2023-10-09T10:21:14;23.00;5.60
8422;DHT22;4248;48.196;10.924;2023-10-09T10:24:01;23.10;5.40
8422;DHT22;4248;48.196;10.924;2023-10-09T10:26:37;23.20;5.50
8422;DHT22;4248;48.196;10.924;2023-10-09T10:29:19;23.10;5.20
8422;DHT22;4248;48.196;10.924;2023-10-09T10:31:55;23.20;5.10
8422;DHT22;4248;48.196;10.924;2023-10-09T10:34:22;23.30;5.00
8422;DHT22;4248;48.196;10.924;2023-10-09T10:36:50;23.40;5.10
8422;DHT22;4248;48.196;10.924;2023-10-09T10:39:18;23.40;4.70
8422;DHT22;4248;48.196;10.924;2023-10-09T10:41:54;23.50;4.80
8422;DHT22;4248;48.196;10.924;2023-10-09T10:44:33;23.60;5.30
8422;DHT22;4248;48.196;10.924;2023-10-09T10:47:00;23.70;4.20
8422;DHT22;4248;48.196;10.924;2023-10-09T10:49:27;23.70;4.30
8422;DHT22;4248;48.196;10.924;2023-10-09T10:52:02;23.70;4.20
8422;DHT22;4248;48.196;10.924;2023-10-09T10:54:40;23.70;3.80
8422;DHT22;4248;48.196;10.924;2023-10-09T10:59:54;24.00;2.70
8422;DHT22;4248;48.196;10.924;2023-10-09T11:02:39;24.00;2.80
8422;DHT22;4248;48.196;10.924;2023-10-09T11:05:07;24.20;2.90
8422;DHT22;4248;48.196;10.924;2023-10-09T11:07:50;24.40;3.00
8422;DHT22;4248;48.196;10.924;2023-10-09T11:10:22;24.40;3.00
8422;DHT22;4248;48.196;10.924;2023-10-09T11:12:53;24.60;2.50
8422;DHT22;4248;48.196;10.924;2023-10-09T11:15:31;24.70;1.90
8422;DHT22;4248;48.196;10.924;2023-10-09T11:18:10;24.60;1.40
8422;DHT22;4248;48.196;10.924;2023-10-09T11:20:55;24.90;1.40
8422;DHT22;4248;48.196;10.924;2023-10-09T11:23:44;25.00;1.00
8422;DHT22;4248;48.196;10.924;2023-10-09T11:26:13;24.90;1.20
8422;DHT22;4248;48.196;10.924;2023-10-09T11:29:11;24.80;1.10
8422;DHT22;4248;48.196;10.924;2023-10-09T11:32:04;24.70;1.20
8422;DHT22;4248;48.196;10.924;2023-10-09T11:34:49;24.30;1.00
8422;DHT22;4248;48.196;10.924;2023-10-09T11:37:19;24.20;1.60
8422;DHT22;4248;48.196;10.924;2023-10-09T11:40:04;24.10;1.80
8422;DHT22;4248;48.196;10.924;2023-10-09T11:42:48;24.10;1.90
8422;DHT22;4248;48.196;10.924;2023-10-09T11:45:22;23.80;1.40
8422;DHT22;4248;48.196;10.924;2023-10-09T11:47:54;23.60;1.50
8422;DHT22;4248;48.196;10.924;2023-10-09T11:50:44;23.40;1.70
8422;DHT22;4248;48.196;10.924;2023-10-09T11:53:17;23.20;2.20
8422;DHT22;4248;48.196;10.924;2023-10-09T11:55:58;23.10;2.10
8422;DHT22;4248;48.196;10.924;2023-10-09T11:58:24;23.10;2.10
8422;DHT22;4248;48.196;10.924;2023-10-09T12:00:54;23.00;2.00
8422;DHT22;4248;48.196;10.924;2023-10-09T12:03:31;22.90;2.00
8422;DHT22;4248;48.196;10.924;2023-10-09T12:06:03;22.80;1.90
8422;DHT22;4248;48.196;10.924;2023-10-09T12:08:38;22.70;2.40
8422;DHT22;4248;48.196;10.924;2023-10-09T12:11:06;22.70;2.60
8422;DHT22;4248;48.196;10.924;2023-10-09T12:13:33;22.80;2.80
8422;DHT22;4248;48.196;10.924;2023-10-09T12:15:59;22.80;3.10
8422;DHT22;4248;48.196;10.924;2023-10-09T12:18:25;22.80;3.20
8422;DHT22;4248;48.196;10.924;2023-10-09T12:20:51;22.70;3.30
8422;DHT22;4248;48.196;10.924;2023-10-09T12:23:19;22.80;3.40
8422;DHT22;4248;48.196;10.924;2023-10-09T12:25:45;22.80;3.40
8422;DHT22;4248;48.196;10.924;2023-10-09T12:28:12;22.80;3.60
8422;DHT22;4248;48.196;10.924;2023-10-09T12:30:38;22.50;3.40
8422;DHT22;4248;48.196;10.924;2023-10-09T12:33:08;22.30;3.90
8422;DHT22;4248;48.196;10.924;2023-10-09T12:35:38;22.20;4.20
8422;DHT22;4248;48.196;10.924;2023-10-09T12:38:05;22.10;4.20
8422;DHT22;4248;48.196;10.924;2023-10-09T12:40:40;22.10;4.30
8422;DHT22;4248;48.196;10.924;2023-10-09T12:43:07;22.00;4.50
8422;DHT22;4248;48.196;10.924;2023-10-09T12:45:41;22.00;4.50
8422;DHT22;4248;48.196;10.924;2023-10-09T12:48:07;22.00;4.80
8422;DHT22;4248;48.196;10.924;2023-10-09T12:50:36;21.90;5.10
8422;DHT22;4248;48.196;10.924;2023-10-09T12:53:08;21.80;5.40
8422;DHT22;4248;48.196;10.924;2023-10-09T12:55:37;21.70;5.60
8422;DHT22;4248;48.196;10.924;2023-10-09T12:58:08;21.70;5.80
8422;DHT22;4248;48.196;10.924;2023-10-09T13:00:38;21.70;5.90
8422;DHT22;4248;48.196;10.924;2023-10-09T13:03:12;21.70;6.10
8422;DHT22;4248;48.196;10.924;2023-10-09T13:05:51;21.60;6.10
8422;DHT22;4248;48.196;10.924;2023-10-09T13:08:28;21.70;6.20
8422;DHT22;4248;48.196;10.924;2023-10-09T13:11:04;21.70;6.20
8422;DHT22;4248;48.196;10.924;2023-10-09T13:13:40;21.70;6.30
8422;DHT22;4248;48.196;10.924;2023-10-09T13:16:16;21.70;6.40
8422;DHT22;4248;48.196;10.924;2023-10-09T13:18:55;21.70;6.50
8422;DHT22;4248;48.196;10.924;2023-10-09T13:21:24;21.70;6.70
8422;DHT22;4248;48.196;10.924;2023-10-09T13:23:57;21.70;6.70
8422;DHT22;4248;48.196;10.924;2023-10-09T13:26:25;21.60;6.70
8422;DHT22;4248;48.196;10.924;2023-10-09T13:28:56;21.50;6.90
8422;DHT22;4248;48.196;10.924;2023-10-09T13:31:23;21.50;7.20
8422;DHT22;4248;48.196;10.924;2023-10-09T13:33:56;21.40;7.50
8422;DHT22;4248;48.196;10.924;2023-10-09T13:36:25;21.30;8.70
8422;DHT22;4248;48.196;10.924;2023-10-09T13:39:04;21.30;7.90
8422;DHT22;4248;48.196;10.924;2023-10-09T13:41:46;21.30;8.10
8422;DHT22;4248;48.196;10.924;2023-10-09T13:44:12;21.30;8.10
8422;DHT22;4248;48.196;10.924;2023-10-09T13:46:38;21.40;8.30
8422;DHT22;4248;48.196;10.924;2023-10-09T13:49:10;21.40;8.50
8422;DHT22;4248;48.196;10.924;2023-10-09T13:51:40;21.50;8.60
8422;DHT22;4248;48.196;10.924;2023-10-09T13:54:12;21.60;8.60
8422;DHT22;4248;48.196;10.924;2023-10-09T13:56:54;21.80;8.40
8422;DHT22;4248;48.196;10.924;2023-10-09T13:59:21;22.00;8.40
8422;DHT22;4248;48.196;10.924;2023-10-09T14:01:48;21.90;8.30
8422;DHT22;4248;48.196;10.924;2023-10-09T14:04:14;21.90;8.50
8422;DHT22;4248;48.196;10.924;2023-10-09T14:06:46;21.90;8.70
8422;DHT22;4248;48.196;10.924;2023-10-09T14:09:13;21.90;8.70
8422;DHT22;4248;48.196;10.924;2023-10-09T14:12:00;21.90;8.80
8422;DHT22;4248;48.196;10.924;2023-10-09T14:14:36;21.90;8.80
8422;DHT22;4248;48.196;10.924;2023-10-09T14:17:29;21.80;9.10
8422;DHT22;4248;48.196;10.924;2023-10-09T14:19:56;21.70;9.10
8422;DHT22;4248;48.196;10.924;2023-10-09T14:22:42;21.80;9.10
8422;DHT22;4248;48.196;10.924;2023-10-09T14:25:07;21.80;8.80
8422;DHT22;4248;48.196;10.924;2023-10-09T14:27:40;21.90;8.60
8422;DHT22;4248;48.196;10.924;2023-10-09T14:30:06;22.00;8.60
8422;DHT22;4248;48.196;10.924;2023-10-09T14:32:38;22.10;8.40
8422;DHT22;4248;48.196;10.924;2023-10-09T14:35:13;22.10;8.20
8422;DHT22;4248;48.196;10.924;2023-10-09T14:37:39;22.10;8.20
8422;DHT22;4248;48.196;10.924;2023-10-09T14:40:06;22.10;8.20
8422;DHT22;4248;48.196;10.924;2023-10-09T14:42:39;22.00;8.30
8422;DHT22;4248;48.196;10.924;2023-10-09T14:45:10;22.00;8.40
8422;DHT22;4248;48.196;10.924;2023-10-09T14:47:41;21.90;8.40
8422;DHT22;4248;48.196;10.924;2023-10-09T14:50:07;21.80;8.40
8422;DHT22;4248;48.196;10.924;2023-10-09T14:52:34;21.80;8.40
8422;DHT22;4248;48.196;10.924;2023-10-09T14:55:04;21.70;8.60
8422;DHT22;4248;48.196;10.924;2023-10-09T14:57:30;21.70;8.70
8422;DHT22;4248;48.196;10.924;2023-10-09T15:00:02;21.60;8.80
8422;DHT22;4248;48.196;10.924;2023-10-09T15:02:33;21.60;9.10
8422;DHT22;4248;48.196;10.924;2023-10-09T15:04:58;21.50;9.20
8422;DHT22;4248;48.196;10.924;2023-10-09T15:07:24;21.50;9.50
8422;DHT22;4248;48.196;10.924;2023-10-09T15:09:50;21.40;9.50
8422;DHT22;4248;48.196;10.924;2023-10-09T15:12:16;21.40;9.50
8422;DHT22;4248;48.196;10.924;2023-10-09T15:14:42;21.50;9.70
8422;DHT22;4248;48.196;10.924;2023-10-09T15:17:08;21.40;9.60
8422;DHT22;4248;48.196;10.924;2023-10-09T15:19:34;21.40;9.70
8422;DHT22;4248;48.196;10.924;2023-10-09T15:22:00;21.40;9.80
8422;DHT22;4248;48.196;10.924;2023-10-09T15:24:26;21.30;9.90
8422;DHT22;4248;48.196;10.924;2023-10-09T15:26:53;21.20;10.10
8422;DHT22;4248;48.196;10.924;2023-10-09T15:29:26;21.20;11.30
8422;DHT22;4248;48.196;10.924;2023-10-09T15:32:01;21.00;10.50
8422;DHT22;4248;48.196;10.924;2023-10-09T15:34:34;20.90;10.80
8422;DHT22;4248;48.196;10.924;2023-10-09T15:37:02;20.80;11.00
8422;DHT22;4248;48.196;10.924;2023-10-09T15:39:29;20.80;11.20
8422;DHT22;4248;48.196;10.924;2023-10-09T15:41:57;20.80;11.20
8422;DHT22;4248;48.196;10.924;2023-10-09T15:44:22;20.70;11.10
8422;DHT22;4248;48.196;10.924;2023-10-09T15:46:50;20.70;11.20
8422;DHT22;4248;48.196;10.924;2023-10-09T15:49:18;20.70;11.20
8422;DHT22;4248;48.196;10.924;2023-10-09T15:51:44;20.70;11.40
8422;DHT22;4248;48.196;10.924;2023-10-09T15:54:13;20.50;12.70
8422;DHT22;4248;48.196;10.924;2023-10-09T15:56:41;20.40;11.60
8422;DHT22;4248;48.196;10.924;2023-10-09T15:59:07;20.40;11.60
8422;DHT22;4248;48.196;10.924;2023-10-09T16:01:33;20.30;11.50
8422;DHT22;4248;48.196;10.924;2023-10-09T16:04:01;20.20;11.50
8422;DHT22;4248;48.196;10.924;2023-10-09T16:06:26;20.10;11.40
8422;DHT22;4248;48.196;10.924;2023-10-09T16:08:56;20.10;11.80
8422;DHT22;4248;48.196;10.924;2023-10-09T16:11:22;20.00;11.90
8422;DHT22;4248;48.196;10.924;2023-10-09T16:13:53;20.10;12.20
8422;DHT22;4248;48.196;10.924;2023-10-09T16:16:29;19.90;12.30
8422;DHT22;4248;48.196;10.924;2023-10-09T16:18:55;19.90;12.40
8422;DHT22;4248;48.196;10.924;2023-10-09T16:21:23;19.90;12.40
8422;DHT22;4248;48.196;10.924;2023-10-09T16:23:50;19.80;12.40
8422;DHT22;4248;48.196;10.924;2023-10-09T16:26:16;19.70;12.50
8422;DHT22;4248;48.196;10.924;2023-10-09T16:28:44;19.70;12.70
8422;DHT22;4248;48.196;10.924;2023-10-09T16:31:10;19.70;12.90
8422;DHT22;4248;48.196;10.924;2023-10-09T16:33:41;19.60;13.00
8422;DHT22;4248;48.196;10.924;2023-10-09T16:36:06;19.60;13.10
8422;DHT22;4248;48.196;10.924;2023-10-09T16:38:33;19.50;13.10
8422;DHT22;4248;48.196;10.924;2023-10-09T16:41:01;19.50;13.10
8422;DHT22;4248;48.196;10.924;2023-10-09T16:43:33;19.50;13.30
8422;DHT22;4248;48.196;10.924;2023-10-09T16:46:01;19.50;13.20
8422;DHT22;4248;48.196;10.924;2023-10-09T16:48:36;19.50;13.30
8422;DHT22;4248;48.196;10.924;2023-10-09T16:51:05;19.40;13.30